createdAt,value
2023-04-27T00:01:50.009Z,20.40
2023-04-27T00:04:16.883Z,20.40
2023-04-27T00:06:43.771Z,20.40
2023-04-27T00:09:12.233Z,20.40
2023-04-27T00:11:39.145Z,20.40
2023-04-27T00:14:05.852Z,20.40
2023-04-27T00:16:32.651Z,20.40
2023-04-27T00:18:59.477Z,20.40
2023-04-27T00:21:27.032Z,20.40
2023-04-27T00:23:54.328Z,20.40
2023-04-27T00:26:22.530Z,20.40
2023-04-27T00:28:49.401Z,20.40
2023-04-27T00:31:16.280Z,20.40
2023-04-27T00:33:42.981Z,20.40
2023-04-27T00:36:09.694Z,20.40
2023-04-27T00:38:37.072Z,20.40
2023-04-27T00:41:04.064Z,20.40
2023-04-27T00:43:30.906Z,20.30
2023-04-27T00:45:57.593Z,20.40
2023-04-27T00:48:24.502Z,20.40
2023-04-27T00:50:51.256Z,20.40
2023-04-27T00:53:18.150Z,20.40
2023-04-27T00:55:44.816Z,20.30
2023-04-27T00:58:11.934Z,20.30
2023-04-27T01:00:39.183Z,20.40
2023-04-27T01:03:06.256Z,20.40
2023-04-27T01:05:33.071Z,20.40
2023-04-27T01:07:59.753Z,20.40
2023-04-27T01:10:27.046Z,20.30
2023-04-27T01:12:53.843Z,20.30
2023-04-27T01:15:20.517Z,20.30
2023-04-27T01:17:47.544Z,20.30
2023-04-27T01:20:15.057Z,20.30
2023-04-27T01:22:41.958Z,20.30
2023-04-27T01:25:08.797Z,20.30
2023-04-27T01:27:35.659Z,20.30
2023-04-27T01:30:02.432Z,20.30
2023-04-27T01:32:29.240Z,20.30
2023-04-27T01:34:55.974Z,20.30
2023-04-27T01:37:22.673Z,20.30
2023-04-27T01:39:49.408Z,20.30
2023-04-27T01:42:17.133Z,20.30
2023-04-27T01:44:43.804Z,20.30
2023-04-27T01:47:10.498Z,20.30
2023-04-27T01:49:37.208Z,20.30
2023-04-27T01:52:03.994Z,20.30
2023-04-27T01:54:30.785Z,20.30
2023-04-27T01:56:58.729Z,20.30
2023-04-27T01:59:25.425Z,20.30
2023-04-27T02:01:52.139Z,20.30
2023-04-27T02:04:19.040Z,20.30
2023-04-27T02:06:45.826Z,20.30
2023-04-27T02:09:13.190Z,20.30
2023-04-27T02:11:40.016Z,20.30
2023-04-27T02:14:06.747Z,20.30
2023-04-27T02:16:33.548Z,20.30
2023-04-27T02:19:00.496Z,20.30
2023-04-27T02:21:28.507Z,20.30
2023-04-27T02:23:55.199Z,20.30
2023-04-27T02:26:22.392Z,20.30
2023-04-27T02:28:50.230Z,20.30
2023-04-27T02:31:17.332Z,20.30
2023-04-27T02:33:44.035Z,20.30
2023-04-27T02:36:10.718Z,20.30
2023-04-27T02:38:37.400Z,20.30
2023-04-27T02:41:04.178Z,20.30
2023-04-27T02:43:30.916Z,20.30
2023-04-27T02:45:57.747Z,20.30
2023-04-27T02:48:24.466Z,20.30
2023-04-27T02:50:51.145Z,20.30
2023-04-27T02:53:17.840Z,20.30
2023-04-27T02:55:48.436Z,20.40
2023-04-27T02:58:15.527Z,20.50
2023-04-27T03:00:42.631Z,20.60
2023-04-27T03:03:12.402Z,20.80
2023-04-27T03:05:39.230Z,20.90
2023-04-27T03:08:05.946Z,20.90
2023-04-27T03:10:32.755Z,20.90
2023-04-27T03:12:59.830Z,20.90
2023-04-27T03:15:26.583Z,20.80
2023-04-27T03:17:53.448Z,20.80
2023-04-27T03:20:21.407Z,20.80
2023-04-27T03:22:48.086Z,20.70
2023-04-27T03:25:14.902Z,20.70
2023-04-27T03:27:43.378Z,20.60
2023-04-27T03:30:10.897Z,20.60
2023-04-27T03:32:37.683Z,20.60
2023-04-27T03:35:04.734Z,20.50
2023-04-27T03:37:31.752Z,20.50
2023-04-27T03:39:58.469Z,20.50
2023-04-27T03:42:25.263Z,20.40
2023-04-27T03:44:51.944Z,20.40
2023-04-27T03:47:18.592Z,20.40
2023-04-27T03:49:45.281Z,20.40
2023-04-27T03:52:11.922Z,20.40
2023-04-27T03:54:38.680Z,20.40
2023-04-27T03:57:05.348Z,20.40
2023-04-27T03:59:32.065Z,20.40
2023-04-27T04:02:00.935Z,20.40
2023-04-27T04:04:28.334Z,20.40
2023-04-27T04:06:55.104Z,20.40
2023-04-27T04:09:23.864Z,20.40
2023-04-27T04:11:51.799Z,20.40
2023-04-27T04:14:18.497Z,20.40
2023-04-27T04:16:45.208Z,20.40
2023-04-27T04:19:12.158Z,20.40
2023-04-27T04:21:39.027Z,20.30
2023-04-27T04:24:06.186Z,20.30
2023-04-27T04:26:33.602Z,20.30
2023-04-27T04:29:01.183Z,20.30
2023-04-27T04:31:27.936Z,20.30
2023-04-27T04:33:54.618Z,20.30
2023-04-27T04:36:21.356Z,20.40
2023-04-27T04:38:48.017Z,20.30
2023-04-27T04:41:14.694Z,20.40
2023-04-27T04:43:42.266Z,20.30
2023-04-27T04:46:08.975Z,20.30
2023-04-27T04:48:36.938Z,20.30
2023-04-27T04:51:05.061Z,20.30
2023-04-27T04:53:31.950Z,20.30
2023-04-27T04:56:07.683Z,20.30
2023-04-27T04:58:34.343Z,20.30
2023-04-27T05:01:01.899Z,20.30
2023-04-27T05:03:28.802Z,20.30
2023-04-27T05:05:55.571Z,20.20
2023-04-27T05:08:22.262Z,20.30
2023-04-27T05:10:50.366Z,20.30
2023-04-27T05:13:17.275Z,20.30
2023-04-27T05:15:44.044Z,20.30
2023-04-27T05:18:11.276Z,20.20
2023-04-27T05:20:38.290Z,20.30
2023-04-27T05:23:05.055Z,20.30
2023-04-27T05:25:32.248Z,20.30
2023-04-27T05:27:58.923Z,20.20
2023-04-27T05:30:27.046Z,20.30
2023-04-27T05:32:53.835Z,20.20
2023-04-27T05:35:20.834Z,20.20
2023-04-27T05:37:47.514Z,20.30
2023-04-27T05:40:18.928Z,20.20
2023-04-27T05:42:48.699Z,20.20
2023-04-27T05:45:15.553Z,20.20
2023-04-27T05:47:42.289Z,20.20
2023-04-27T05:50:09.305Z,20.20
2023-04-27T05:52:38.252Z,20.20
2023-04-27T05:55:05.473Z,20.20
2023-04-27T05:57:32.162Z,20.20
2023-04-27T05:59:58.899Z,20.20
2023-04-27T06:02:25.813Z,20.20
2023-04-27T06:04:55.125Z,20.20
2023-04-27T06:07:21.875Z,20.20
2023-04-27T06:09:49.398Z,20.20
2023-04-27T06:12:16.082Z,20.20
2023-04-27T06:14:43.204Z,20.20
2023-04-27T06:17:09.879Z,20.20
2023-04-27T06:19:37.980Z,20.20
2023-04-27T06:22:13.397Z,20.20
2023-04-27T06:24:40.127Z,20.20
2023-04-27T06:27:06.859Z,20.20
2023-04-27T06:29:33.520Z,20.20
2023-04-27T06:32:00.366Z,20.20
2023-04-27T06:34:27.191Z,20.20
2023-04-27T06:36:53.881Z,20.20
2023-04-27T06:39:20.884Z,20.20
2023-04-27T06:41:47.648Z,20.20
2023-04-27T06:44:14.347Z,20.20
2023-04-27T06:46:41.149Z,20.20
2023-04-27T06:49:07.868Z,20.20
2023-04-27T06:51:34.544Z,20.20
2023-04-27T06:54:02.625Z,20.20
2023-04-27T06:56:29.364Z,20.20
2023-04-27T06:58:56.262Z,20.20
2023-04-27T07:01:23.060Z,20.20
2023-04-27T07:03:49.867Z,20.20
2023-04-27T07:06:16.654Z,20.20
2023-04-27T07:08:43.452Z,20.20
2023-04-27T07:11:10.167Z,20.20
2023-04-27T07:13:36.852Z,20.20
2023-04-27T07:16:03.696Z,20.20
2023-04-27T07:18:30.460Z,20.20
2023-04-27T07:20:58.143Z,20.20
2023-04-27T07:23:24.866Z,20.20
2023-04-27T07:25:54.590Z,20.20
2023-04-27T07:28:21.453Z,20.20
2023-04-27T07:30:48.117Z,20.20
2023-04-27T07:33:14.781Z,20.20
2023-04-27T07:35:42.062Z,20.20
2023-04-27T07:38:08.920Z,20.20
2023-04-27T07:40:36.392Z,20.20
2023-04-27T07:43:04.171Z,20.20
2023-04-27T07:45:34.192Z,20.20
2023-04-27T07:48:02.110Z,20.20
2023-04-27T07:50:30.027Z,20.20
2023-04-27T07:52:57.103Z,20.20
2023-04-27T07:55:23.880Z,20.20
2023-04-27T07:57:51.336Z,20.20
2023-04-27T08:00:23.961Z,20.20
2023-04-27T08:02:51.819Z,20.20
2023-04-27T08:05:19.408Z,20.20
2023-04-27T08:08:22.017Z,20.20
2023-04-27T08:11:19.457Z,20.20
2023-04-27T08:13:46.149Z,20.20
2023-04-27T08:16:12.921Z,20.20
2023-04-27T08:18:47.480Z,20.20
2023-04-27T08:21:15.058Z,20.20
2023-04-27T08:23:43.389Z,20.20
2023-04-27T08:26:13.924Z,20.20
2023-04-27T08:28:41.744Z,20.20
2023-04-27T08:31:08.577Z,20.20
2023-04-27T08:33:35.406Z,20.20
2023-04-27T08:36:02.555Z,20.30
2023-04-27T08:38:29.301Z,20.20
2023-04-27T08:40:56.025Z,20.20
2023-04-27T08:43:22.921Z,20.20
2023-04-27T08:45:50.448Z,20.20
2023-04-27T08:48:17.458Z,20.20
2023-04-27T08:50:44.485Z,20.20
2023-04-27T08:53:21.472Z,20.20
2023-04-27T08:55:48.385Z,20.20
2023-04-27T08:58:15.065Z,20.20
2023-04-27T09:00:42.196Z,20.20
2023-04-27T09:03:27.368Z,20.20
2023-04-27T09:06:04.421Z,20.20
2023-04-27T09:08:47.985Z,20.20
2023-04-27T09:11:15.223Z,20.20
2023-04-27T09:13:42.397Z,20.20
2023-04-27T09:16:09.319Z,20.30
2023-04-27T09:18:36.789Z,20.30
2023-04-27T09:21:04.230Z,20.40
2023-04-27T09:23:31.393Z,20.50
2023-04-27T09:25:58.498Z,20.60
2023-04-27T09:28:25.571Z,20.80
2023-04-27T09:30:53.726Z,20.90
2023-04-27T09:33:38.576Z,21.00
2023-04-27T09:36:05.850Z,21.00
2023-04-27T09:38:32.870Z,20.90
2023-04-27T09:40:59.953Z,20.80
2023-04-27T09:43:28.725Z,20.80
2023-04-27T09:45:55.731Z,20.70
2023-04-27T09:48:22.769Z,20.70
2023-04-27T09:50:49.847Z,20.70
2023-04-27T09:53:20.289Z,20.60
2023-04-27T09:55:54.314Z,20.60
2023-04-27T09:58:30.842Z,20.60
2023-04-27T10:01:01.070Z,20.50
2023-04-27T10:03:33.069Z,20.50
2023-04-27T10:06:02.934Z,20.50
2023-04-27T10:08:29.595Z,20.50
2023-04-27T10:10:56.284Z,20.50
2023-04-27T10:13:23.610Z,20.50
2023-04-27T10:15:50.655Z,20.50
2023-04-27T10:18:27.691Z,20.50
2023-04-27T10:20:54.346Z,20.50
2023-04-27T10:23:27.563Z,20.40
2023-04-27T10:25:54.333Z,20.40
2023-04-27T10:28:21.491Z,20.40
2023-04-27T10:30:49.366Z,20.50
2023-04-27T10:33:16.812Z,20.40
2023-04-27T10:35:44.489Z,20.40
2023-04-27T10:38:18.125Z,20.40
2023-04-27T10:40:46.664Z,20.40
2023-04-27T10:43:13.415Z,20.40
2023-04-27T10:45:40.621Z,20.40
2023-04-27T10:48:07.553Z,20.50
2023-04-27T10:50:34.604Z,20.40
2023-04-27T10:53:05.008Z,20.40
2023-04-27T10:55:31.802Z,20.40
2023-04-27T10:57:59.215Z,20.40
2023-04-27T11:00:29.639Z,20.40
2023-04-27T11:02:57.082Z,20.40
2023-04-27T11:05:25.653Z,20.40
2023-04-27T11:07:52.592Z,20.40
2023-04-27T11:10:19.512Z,20.40
2023-04-27T11:12:46.313Z,20.40
2023-04-27T11:15:14.854Z,20.40
2023-04-27T11:17:41.832Z,20.40
2023-04-27T11:20:09.039Z,20.40
2023-04-27T11:22:43.850Z,20.40
2023-04-27T11:25:10.550Z,20.40
2023-04-27T11:27:38.294Z,20.40
2023-04-27T11:30:05.783Z,20.40
2023-04-27T11:32:32.600Z,20.40
2023-04-27T11:34:59.808Z,20.50
2023-04-27T11:37:27.985Z,20.70
2023-04-27T11:39:54.884Z,20.80
2023-04-27T11:42:27.023Z,21.00
2023-04-27T11:44:54.509Z,21.10
2023-04-27T11:47:25.263Z,21.10
2023-04-27T11:49:52.743Z,21.00
2023-04-27T11:52:19.713Z,21.00
2023-04-27T11:54:50.321Z,20.90
2023-04-27T11:57:17.162Z,20.90
2023-04-27T11:59:44.703Z,20.80
2023-04-27T12:02:12.110Z,20.80
2023-04-27T12:04:39.093Z,20.80
2023-04-27T12:07:05.905Z,20.70
2023-04-27T12:09:32.597Z,20.70
2023-04-27T12:11:59.714Z,20.70
2023-04-27T12:14:27.405Z,20.60
2023-04-27T12:16:54.240Z,20.60
2023-04-27T12:19:21.371Z,20.60
2023-04-27T12:21:48.585Z,20.60
2023-04-27T12:24:16.328Z,20.60
2023-04-27T12:26:43.361Z,20.60
2023-04-27T12:29:10.074Z,20.60
2023-04-27T12:31:37.048Z,20.60
2023-04-27T12:34:03.927Z,20.60
2023-04-27T12:36:30.663Z,20.60
2023-04-27T12:39:01.742Z,20.60
2023-04-27T12:41:28.511Z,20.60
2023-04-27T12:43:55.242Z,20.50
2023-04-27T12:46:26.228Z,20.50
2023-04-27T12:48:53.190Z,20.60
2023-04-27T12:51:19.913Z,20.60
2023-04-27T12:53:46.705Z,20.50
2023-04-27T12:56:13.391Z,20.50
2023-04-27T12:58:46.350Z,20.50
2023-04-27T13:01:16.041Z,20.50
2023-04-27T13:03:43.169Z,20.50
2023-04-27T13:06:10.117Z,20.50
2023-04-27T13:08:38.365Z,20.50
2023-04-27T13:11:05.150Z,20.50
2023-04-27T13:13:32.005Z,20.50
2023-04-27T13:15:58.752Z,20.50
2023-04-27T13:18:25.553Z,20.50
2023-04-27T13:20:52.278Z,20.50
2023-04-27T13:23:18.980Z,20.50
2023-04-27T13:25:45.722Z,20.50
2023-04-27T13:28:12.536Z,20.50
2023-04-27T13:30:39.231Z,20.50
2023-04-27T13:33:21.176Z,20.60
2023-04-27T13:35:49.122Z,20.70
2023-04-27T13:38:15.784Z,20.90
2023-04-27T13:40:45.476Z,21.00
2023-04-27T13:43:12.204Z,21.10
2023-04-27T13:45:39.799Z,21.10
2023-04-27T13:48:06.632Z,21.00
2023-04-27T13:50:33.401Z,21.00
2023-04-27T13:53:00.148Z,20.90
2023-04-27T13:55:26.880Z,20.90
2023-04-27T13:57:57.247Z,20.80
2023-04-27T14:00:24.065Z,20.80
2023-04-27T14:02:51.177Z,20.80
2023-04-27T14:05:18.011Z,20.80
2023-04-27T14:07:44.731Z,20.70
2023-04-27T14:10:11.498Z,20.70
2023-04-27T14:12:38.208Z,20.70
2023-04-27T14:15:05.155Z,20.70
2023-04-27T14:17:32.364Z,20.70
2023-04-27T14:19:59.093Z,20.70
2023-04-27T14:22:26.124Z,20.60
2023-04-27T14:24:53.856Z,20.60
2023-04-27T14:27:22.010Z,20.60
2023-04-27T14:29:48.956Z,20.60
2023-04-27T14:32:20.649Z,20.60
2023-04-27T14:34:47.510Z,20.50
2023-04-27T14:37:14.278Z,20.60
2023-04-27T14:39:42.820Z,20.60
2023-04-27T14:42:11.225Z,20.60
2023-04-27T14:44:37.942Z,20.60
2023-04-27T14:47:05.753Z,20.60
2023-04-27T14:49:33.020Z,20.60
2023-04-27T14:52:03.536Z,20.60
2023-04-27T14:54:30.296Z,20.60
2023-04-27T14:56:58.611Z,20.60
2023-04-27T14:59:25.606Z,20.50
2023-04-27T15:01:52.492Z,20.50
2023-04-27T15:04:19.907Z,20.40
2023-04-27T15:06:47.107Z,20.40
2023-04-27T15:09:14.180Z,20.40
2023-04-27T15:11:41.463Z,20.40
2023-04-27T15:14:08.759Z,20.40
2023-04-27T15:16:35.981Z,20.40
2023-04-27T15:19:03.522Z,20.40
2023-04-27T15:21:31.286Z,20.30
2023-04-27T15:23:58.035Z,20.30
2023-04-27T15:26:26.379Z,20.20
2023-04-27T15:28:53.832Z,20.20
2023-04-27T15:31:21.345Z,20.20
2023-04-27T15:33:48.121Z,20.10
2023-04-27T15:36:15.437Z,20.10
2023-04-27T15:38:42.200Z,20.10
2023-04-27T15:41:08.867Z,20.10
2023-04-27T15:43:35.580Z,20.10
2023-04-27T15:46:05.969Z,20.10
2023-04-27T15:48:32.769Z,20.10
2023-04-27T15:51:10.163Z,20.10
2023-04-27T15:53:38.029Z,20.20
2023-04-27T15:56:05.014Z,20.20
2023-04-27T15:58:31.924Z,20.40
2023-04-27T16:01:00.142Z,20.50
2023-04-27T16:03:26.991Z,20.60
2023-04-27T16:05:53.844Z,20.70
2023-04-27T16:08:20.570Z,20.70
2023-04-27T16:10:47.214Z,20.70
2023-04-27T16:13:14.632Z,20.60
2023-04-27T16:15:41.509Z,20.60
2023-04-27T16:18:08.400Z,20.50
2023-04-27T16:20:36.559Z,20.50
2023-04-27T16:23:06.656Z,20.50
2023-04-27T16:25:33.357Z,20.50
2023-04-27T16:28:00.516Z,20.50
2023-04-27T16:30:27.237Z,20.40
2023-04-27T16:32:54.242Z,20.50
2023-04-27T16:35:21.043Z,20.40
2023-04-27T16:37:49.720Z,20.40
2023-04-27T16:40:16.698Z,20.40
2023-04-27T16:42:43.522Z,20.40
2023-04-27T16:45:11.032Z,20.40
2023-04-27T16:47:38.186Z,20.50
2023-04-27T16:50:05.217Z,20.50
2023-04-27T16:52:32.034Z,20.40
2023-04-27T16:54:58.747Z,20.50
2023-04-27T16:57:25.967Z,20.50
2023-04-27T16:59:52.707Z,20.50
2023-04-27T17:02:25.077Z,20.50
2023-04-27T17:04:52.929Z,20.50
2023-04-27T17:07:19.804Z,20.50
2023-04-27T17:09:46.574Z,20.50
2023-04-27T17:12:14.992Z,20.50
2023-04-27T17:14:42.509Z,20.50
2023-04-27T17:17:10.015Z,20.50
2023-04-27T17:19:36.954Z,20.50
2023-04-27T17:22:03.999Z,20.50
2023-04-27T17:24:30.769Z,20.50
2023-04-27T17:26:57.528Z,20.50
2023-04-27T17:29:26.668Z,20.50
2023-04-27T17:31:53.466Z,20.40
2023-04-27T17:34:20.364Z,20.50
2023-04-27T17:36:47.196Z,20.50
2023-04-27T17:39:14.578Z,20.50
2023-04-27T17:41:41.851Z,20.50
2023-04-27T17:44:08.617Z,20.50
2023-04-27T17:46:37.115Z,20.50
2023-04-27T17:49:03.917Z,20.50
2023-04-27T17:51:32.617Z,20.60
2023-04-27T17:53:59.349Z,20.70
2023-04-27T17:56:26.030Z,20.80
2023-04-27T17:58:52.772Z,21.00
2023-04-27T18:01:19.488Z,21.10
2023-04-27T18:03:46.315Z,21.10
2023-04-27T18:06:13.132Z,21.10
2023-04-27T18:08:40.183Z,21.10
2023-04-27T18:11:06.989Z,21.00
2023-04-27T18:13:33.744Z,21.00
2023-04-27T18:16:00.743Z,20.90
2023-04-27T18:18:27.854Z,20.90
2023-04-27T18:20:57.653Z,20.90
2023-04-27T18:23:24.378Z,20.80
2023-04-27T18:25:51.179Z,20.80
2023-04-27T18:28:19.104Z,20.80
2023-04-27T18:30:45.862Z,20.70
2023-04-27T18:33:12.626Z,20.80
2023-04-27T18:35:39.355Z,20.70
2023-04-27T18:38:06.150Z,20.70
2023-04-27T18:40:33.129Z,20.70
2023-04-27T18:42:59.836Z,20.70
2023-04-27T18:45:26.918Z,20.70
2023-04-27T18:47:53.843Z,20.60
2023-04-27T18:50:20.752Z,20.60
2023-04-27T18:52:47.604Z,20.70
2023-04-27T18:55:16.346Z,20.70
2023-04-27T18:57:43.184Z,20.60
2023-04-27T19:00:11.765Z,20.60
2023-04-27T19:02:38.668Z,20.60
2023-04-27T19:05:12.071Z,20.60
2023-04-27T19:07:39.473Z,20.60
2023-04-27T19:10:07.002Z,20.60
2023-04-27T19:12:33.871Z,20.60
2023-04-27T19:15:00.704Z,20.60
2023-04-27T19:17:27.716Z,20.60
2023-04-27T19:19:57.431Z,20.60
2023-04-27T19:22:24.324Z,20.60
2023-04-27T19:24:51.051Z,20.60
2023-04-27T19:27:17.919Z,20.60
2023-04-27T19:29:54.660Z,20.60
2023-04-27T19:32:28.869Z,20.60
2023-04-27T19:34:56.342Z,20.60
2023-04-27T19:37:23.483Z,20.60
2023-04-27T19:39:50.311Z,20.60
2023-04-27T19:42:17.000Z,20.50
2023-04-27T19:44:43.744Z,20.60
2023-04-27T19:47:11.192Z,20.60
2023-04-27T19:49:38.004Z,20.50
2023-04-27T19:52:05.288Z,20.60
2023-04-27T19:54:32.047Z,20.50
2023-04-27T19:56:58.799Z,20.50
2023-04-27T19:59:26.159Z,20.50
2023-04-27T20:01:52.963Z,20.50
2023-04-27T20:04:20.747Z,20.50
2023-04-27T20:06:47.891Z,20.50
2023-04-27T20:09:14.644Z,20.50
2023-04-27T20:11:41.446Z,20.50
2023-04-27T20:14:08.177Z,20.50
2023-04-27T20:16:38.050Z,20.50
2023-04-27T20:19:06.223Z,20.50
2023-04-27T20:21:33.661Z,20.50
2023-04-27T20:24:01.552Z,20.50
2023-04-27T20:26:28.635Z,20.50
2023-04-27T20:28:55.432Z,20.50
2023-04-27T20:31:22.148Z,20.50
2023-04-27T20:33:48.858Z,20.50
2023-04-27T20:36:18.224Z,20.50
2023-04-27T20:38:45.451Z,20.50
2023-04-27T20:41:15.170Z,20.50
2023-04-27T20:43:41.889Z,20.50
2023-04-27T20:46:10.120Z,20.50
2023-04-27T20:48:40.070Z,20.50
2023-04-27T20:51:06.891Z,20.50
2023-04-27T20:53:33.629Z,20.50
2023-04-27T20:56:00.297Z,20.50
2023-04-27T20:58:27.119Z,20.50
2023-04-27T21:00:53.845Z,20.40
2023-04-27T21:03:21.015Z,20.40
2023-04-27T21:05:51.330Z,20.50
2023-04-27T21:08:24.048Z,20.50
2023-04-27T21:10:50.752Z,20.50
2023-04-27T21:13:17.461Z,20.50
2023-04-27T21:15:50.452Z,20.50
2023-04-27T21:18:29.042Z,20.50
2023-04-27T21:21:00.817Z,20.40
2023-04-27T21:23:34.401Z,20.40
2023-04-27T21:26:01.111Z,20.50
2023-04-27T21:28:27.777Z,20.50
2023-04-27T21:30:54.483Z,20.50
2023-04-27T21:33:21.406Z,20.50
2023-04-27T21:35:48.126Z,20.50
2023-04-27T21:38:14.798Z,20.40
2023-04-27T21:40:41.499Z,20.40
2023-04-27T21:43:08.169Z,20.40
2023-04-27T21:45:34.911Z,20.40
2023-04-27T21:48:01.604Z,20.50
2023-04-27T21:50:28.332Z,20.40
2023-04-27T21:52:55.072Z,20.40
2023-04-27T21:55:21.762Z,20.40
2023-04-27T21:57:48.472Z,20.40
2023-04-27T22:00:15.375Z,20.40
2023-04-27T22:02:45.123Z,20.40
2023-04-27T22:05:12.295Z,20.40
2023-04-27T22:07:39.012Z,20.40
2023-04-27T22:10:05.899Z,20.40
2023-04-27T22:12:32.562Z,20.40
2023-04-27T22:14:59.245Z,20.40
2023-04-27T22:17:26.134Z,20.40
2023-04-27T22:19:52.919Z,20.50
2023-04-27T22:22:19.634Z,20.60
2023-04-27T22:24:46.312Z,20.80
2023-04-27T22:27:12.997Z,20.90
2023-04-27T22:29:39.681Z,21.00
2023-04-27T22:32:06.750Z,21.10
2023-04-27T22:34:33.471Z,21.10
2023-04-27T22:37:00.257Z,21.00
2023-04-27T22:39:27.037Z,21.00
2023-04-27T22:41:59.944Z,20.90
2023-04-27T22:44:26.774Z,20.90
2023-04-27T22:46:53.561Z,20.80
2023-04-27T22:49:20.267Z,20.80
2023-04-27T22:51:47.349Z,20.70
2023-04-27T22:54:14.751Z,20.70
2023-04-27T22:56:41.826Z,20.70
2023-04-27T22:59:08.584Z,20.70
2023-04-27T23:01:35.470Z,20.70
2023-04-27T23:04:02.501Z,20.70
2023-04-27T23:06:30.432Z,20.60
2023-04-27T23:08:57.264Z,20.60
2023-04-27T23:11:23.954Z,20.60
2023-04-27T23:13:50.753Z,20.60
2023-04-27T23:16:17.584Z,20.60
2023-04-27T23:18:44.431Z,20.60
2023-04-27T23:21:11.652Z,20.60
2023-04-27T23:23:44.454Z,20.60
2023-04-27T23:26:14.422Z,20.50
2023-04-27T23:28:48.193Z,20.50
2023-04-27T23:31:14.924Z,20.50
2023-04-27T23:33:41.795Z,20.50
2023-04-27T23:36:08.494Z,20.50
2023-04-27T23:38:35.209Z,20.50
2023-04-27T23:41:07.941Z,20.50
2023-04-27T23:43:34.660Z,20.50
2023-04-27T23:46:01.430Z,20.50
2023-04-27T23:48:28.138Z,20.50
2023-04-27T23:51:01.459Z,20.50
2023-04-27T23:53:28.238Z,20.50
2023-04-27T23:55:55.319Z,20.50
2023-04-27T23:58:24.056Z,20.50
